sensor_id;sensor_type;location;lat;lon;timestamp;pressure;altitude;pressure_sealevel;temperature;humidity
17054;BME280;8643;48.824;11.422;2024-03-08T00:00:52;96986.78;;;-0.46;100.00
17054;BME280;8643;48.824;11.422;2024-03-08T00:03:21;96977.66;;;-0.40;100.00
17054;BME280;8643;48.824;11.422;2024-03-08T00:05:50;96984.38;;;-0.43;100.00
17054;BME280;8643;48.824;11.422;2024-03-08T00:08:19;96982.78;;;-0.39;100.00
17054;BME280;8643;48.824;11.422;2024-03-08T00:10:47;96985.19;;;-0.42;100.00
17054;BME280;8643;48.824;11.422;2024-03-08T00:13:17;96982.16;;;-0.51;100.00
17054;BME280;8643;48.824;11.422;2024-03-08T00:15:47;96979.69;;;-0.58;100.00
17054;BME280;8643;48.824;11.422;2024-03-08T00:18:16;96979.16;;;-0.60;100.00
17054;BME280;8643;48.824;11.422;2024-03-08T00:20:44;96973.00;;;-0.55;100.00
17054;BME280;8643;48.824;11.422;2024-03-08T00:23:13;96972.22;;;-0.50;100.00
17054;BME280;8643;48.824;11.422;2024-03-08T00:25:43;96971.91;;;-0.54;100.00
17054;BME280;8643;48.824;11.422;2024-03-08T00:28:11;96965.72;;;-0.60;100.00
17054;BME280;8643;48.824;11.422;2024-03-08T00:30:44;96960.31;;;-0.60;100.00
17054;BME280;8643;48.824;11.422;2024-03-08T00:33:12;96957.41;;;-0.53;100.00
17054;BME280;8643;48.824;11.422;2024-03-08T00:35:41;96955.75;;;-0.59;100.00
17054;BME280;8643;48.824;11.422;2024-03-08T00:38:10;96950.75;;;-0.45;100.00
17054;BME280;8643;48.824;11.422;2024-03-08T00:40:40;96949.91;;;-0.46;100.00
17054;BME280;8643;48.824;11.422;2024-03-08T00:43:09;96949.97;;;-0.41;100.00
17054;BME280;8643;48.824;11.422;2024-03-08T00:45:37;96951.31;;;-0.38;100.00
17054;BME280;8643;48.824;11.422;2024-03-08T00:48:08;96945.16;;;-0.28;100.00
17054;BME280;8643;48.824;11.422;2024-03-08T00:50:36;96937.94;;;-0.23;100.00
17054;BME280;8643;48.824;11.422;2024-03-08T00:53:05;96938.75;;;-0.22;100.00
17054;BME280;8643;48.824;11.422;2024-03-08T00:55:33;96936.91;;;-0.11;100.00
17054;BME280;8643;48.824;11.422;2024-03-08T00:58:02;96940.13;;;-0.14;100.00
17054;BME280;8643;48.824;11.422;2024-03-08T01:00:31;96936.84;;;-0.27;100.00
17054;BME280;8643;48.824;11.422;2024-03-08T01:03:00;96937.63;;;-0.26;100.00
17054;BME280;8643;48.824;11.422;2024-03-08T01:05:32;96930.63;;;-0.32;100.00
17054;BME280;8643;48.824;11.422;2024-03-08T01:08:02;96925.81;;;-0.25;100.00
17054;BME280;8643;48.824;11.422;2024-03-08T01:10:32;96918.50;;;-0.30;100.00
17054;BME280;8643;48.824;11.422;2024-03-08T01:13:00;96919.06;;;-0.28;100.00
17054;BME280;8643;48.824;11.422;2024-03-08T01:15:29;96922.31;;;-0.26;100.00
17054;BME280;8643;48.824;11.422;2024-03-08T01:17:57;96914.78;;;-0.24;100.00
17054;BME280;8643;48.824;11.422;2024-03-08T01:20:26;96905.31;;;-0.31;100.00
17054;BME280;8643;48.824;11.422;2024-03-08T01:22:56;96905.59;;;-0.33;100.00
17054;BME280;8643;48.824;11.422;2024-03-08T01:25:25;96902.88;;;-0.38;100.00
17054;BME280;8643;48.824;11.422;2024-03-08T01:27:53;96903.66;;;-0.38;100.00
17054;BME280;8643;48.824;11.422;2024-03-08T01:30:22;96897.00;;;-0.25;100.00
17054;BME280;8643;48.824;11.422;2024-03-08T01:32:50;96897.00;;;-0.25;100.00
17054;BME280;8643;48.824;11.422;2024-03-08T01:35:19;96893.78;;;-0.27;100.00
17054;BME280;8643;48.824;11.422;2024-03-08T01:37:49;96889.44;;;-0.28;100.00
17054;BME280;8643;48.824;11.422;2024-03-08T01:40:20;96883.25;;;-0.33;100.00
17054;BME280;8643;48.824;11.422;2024-03-08T01:42:49;96882.97;;;-0.37;100.00
17054;BME280;8643;48.824;11.422;2024-03-08T01:45:18;96884.81;;;-0.43;100.00
17054;BME280;8643;48.824;11.422;2024-03-08T01:47:46;96882.38;;;-0.44;100.00
17054;BME280;8643;48.824;11.422;2024-03-08T01:50:16;96878.38;;;-0.47;100.00
17054;BME280;8643;48.824;11.422;2024-03-08T01:52:44;96876.19;;;-0.50;100.00
17054;BME280;8643;48.824;11.422;2024-03-08T01:55:13;96869.41;;;-0.58;100.00
17054;BME280;8643;48.824;11.422;2024-03-08T01:57:44;96865.94;;;-0.58;100.00
17054;BME280;8643;48.824;11.422;2024-03-08T02:00:13;96865.16;;;-0.53;100.00
17054;BME280;8643;48.824;11.422;2024-03-08T02:02:45;96861.34;;;-0.58;100.00
17054;BME280;8643;48.824;11.422;2024-03-08T02:05:15;96857.09;;;-0.53;100.00
17054;BME280;8643;48.824;11.422;2024-03-08T02:07:43;96853.03;;;-0.56;100.00
17054;BME280;8643;48.824;11.422;2024-03-08T02:10:12;96854.94;;;-0.51;100.00
17054;BME280;8643;48.824;11.422;2024-03-08T02:12:41;96847.09;;;-0.63;100.00
17054;BME280;8643;48.824;11.422;2024-03-08T02:15:11;96839.03;;;-0.58;100.00
17054;BME280;8643;48.824;11.422;2024-03-08T02:17:40;96839.03;;;-0.63;100.00
17054;BME280;8643;48.824;11.422;2024-03-08T02:20:10;96830.13;;;-0.64;100.00
17054;BME280;8643;48.824;11.422;2024-03-08T02:22:42;96831.50;;;-0.56;100.00
17054;BME280;8643;48.824;11.422;2024-03-08T02:25:12;96832.84;;;-0.59;100.00
17054;BME280;8643;48.824;11.422;2024-03-08T02:27:40;96827.75;;;-0.60;100.00
17054;BME280;8643;48.824;11.422;2024-03-08T02:30:10;96825.31;;;-0.62;100.00
17054;BME280;8643;48.824;11.422;2024-03-08T02:32:40;96827.16;;;-0.62;100.00
17054;BME280;8643;48.824;11.422;2024-03-08T02:35:08;96819.13;;;-0.57;100.00
17054;BME280;8643;48.824;11.422;2024-03-08T02:37:37;96823.72;;;-0.47;100.00
17054;BME280;8643;48.824;11.422;2024-03-08T02:40:09;96813.53;;;-0.45;100.00
17054;BME280;8643;48.824;11.422;2024-03-08T02:42:40;96814.59;;;-0.51;100.00
17054;BME280;8643;48.824;11.422;2024-03-08T02:45:08;96818.91;;;-0.50;100.00
17054;BME280;8643;48.824;11.422;2024-03-08T02:47:38;96811.09;;;-0.52;100.00
17054;BME280;8643;48.824;11.422;2024-03-08T02:50:08;96814.03;;;-0.53;100.00
17054;BME280;8643;48.824;11.422;2024-03-08T02:52:36;96805.41;;;-0.56;100.00
17054;BME280;8643;48.824;11.422;2024-03-08T02:55:08;96810.00;;;-0.56;100.00
17054;BME280;8643;48.824;11.422;2024-03-08T02:57:40;96802.19;;;-0.58;100.00
17054;BME280;8643;48.824;11.422;2024-03-08T03:00:09;96812.69;;;-0.56;100.00
17054;BME280;8643;48.824;11.422;2024-03-08T03:02:38;96812.94;;;-0.58;100.00
17054;BME280;8643;48.824;11.422;2024-03-08T03:05:07;96816.97;;;-0.60;100.00
17054;BME280;8643;48.824;11.422;2024-03-08T03:07:37;96821.53;;;-0.61;100.00
17054;BME280;8643;48.824;11.422;2024-03-08T03:10:08;96807.03;;;-0.60;100.00
17054;BME280;8643;48.824;11.422;2024-03-08T03:12:37;96810.75;;;-0.66;100.00
17054;BME280;8643;48.824;11.422;2024-03-08T03:15:06;96809.69;;;-0.70;100.00
17054;BME280;8643;48.824;11.422;2024-03-08T03:17:35;96811.81;;;-0.72;100.00
17054;BME280;8643;48.824;11.422;2024-03-08T03:20:06;96815.06;;;-0.70;100.00
17054;BME280;8643;48.824;11.422;2024-03-08T03:22:38;96804.03;;;-0.68;100.00
17054;BME280;8643;48.824;11.422;2024-03-08T03:25:10;96805.63;;;-0.72;100.00
17054;BME280;8643;48.824;11.422;2024-03-08T03:27:39;96800.75;;;-0.76;100.00
17054;BME280;8643;48.824;11.422;2024-03-08T03:30:10;96801.28;;;-0.79;100.00
17054;BME280;8643;48.824;11.422;2024-03-08T03:32:49;96796.19;;;-0.75;100.00
17054;BME280;8643;48.824;11.422;2024-03-08T03:35:19;96791.38;;;-0.73;100.00
17054;BME280;8643;48.824;11.422;2024-03-08T03:37:48;96783.06;;;-0.71;100.00
17054;BME280;8643;48.824;11.422;2024-03-08T03:40:30;96783.56;;;-0.75;100.00
17054;BME280;8643;48.824;11.422;2024-03-08T03:42:59;96783.59;;;-0.69;100.00
17054;BME280;8643;48.824;11.422;2024-03-08T03:45:27;96787.09;;;-0.64;100.00
17054;BME280;8643;48.824;11.422;2024-03-08T03:47:56;96781.72;;;-0.64;100.00
17054;BME280;8643;48.824;11.422;2024-03-08T03:50:27;96785.44;;;-0.75;100.00
17054;BME280;8643;48.824;11.422;2024-03-08T03:52:56;96776.31;;;-0.74;100.00
17054;BME280;8643;48.824;11.422;2024-03-08T03:55:25;96777.66;;;-0.71;100.00
17054;BME280;8643;48.824;11.422;2024-03-08T03:57:55;96771.19;;;-0.76;100.00
17054;BME280;8643;48.824;11.422;2024-03-08T04:00:27;96773.34;;;-0.78;100.00
17054;BME280;8643;48.824;11.422;2024-03-08T04:02:55;96773.06;;;-0.76;100.00
17054;BME280;8643;48.824;11.422;2024-03-08T04:05:28;96774.41;;;-0.79;100.00
17054;BME280;8643;48.824;11.422;2024-03-08T04:07:58;96771.47;;;-0.72;100.00
17054;BME280;8643;48.824;11.422;2024-03-08T04:10:27;96770.94;;;-0.74;100.00
17054;BME280;8643;48.824;11.422;2024-03-08T04:12:57;96769.03;;;-0.79;100.00
17054;BME280;8643;48.824;11.422;2024-03-08T04:15:25;96771.97;;;-0.80;100.00
17054;BME280;8643;48.824;11.422;2024-03-08T04:17:54;96777.91;;;-0.78;100.00
17054;BME280;8643;48.824;11.422;2024-03-08T04:20:24;96770.13;;;-0.75;100.00
17054;BME280;8643;48.824;11.422;2024-03-08T04:22:53;96774.13;;;-0.82;100.00
17054;BME280;8643;48.824;11.422;2024-03-08T04:25:21;96778.69;;;-0.83;100.00
17054;BME280;8643;48.824;11.422;2024-03-08T04:27:50;96768.72;;;-0.87;100.00
17054;BME280;8643;48.824;11.422;2024-03-08T04:30:21;96773.03;;;-0.86;100.00
17054;BME280;8643;48.824;11.422;2024-03-08T04:32:50;96763.09;;;-0.86;100.00
17054;BME280;8643;48.824;11.422;2024-03-08T04:35:20;96771.69;;;-0.84;100.00
17054;BME280;8643;48.824;11.422;2024-03-08T04:37:48;96775.75;;;-0.81;100.00
17054;BME280;8643;48.824;11.422;2024-03-08T04:40:17;96775.16;;;-0.94;100.00
17054;BME280;8643;48.824;11.422;2024-03-08T04:42:46;96784.31;;;-0.89;100.00
17054;BME280;8643;48.824;11.422;2024-03-08T04:45:18;96782.44;;;-0.89;100.00
17054;BME280;8643;48.824;11.422;2024-03-08T04:47:48;96777.84;;;-0.88;100.00
17054;BME280;8643;48.824;11.422;2024-03-08T04:50:16;96783.56;;;-0.75;100.00
17054;BME280;8643;48.824;11.422;2024-03-08T04:52:45;96776.06;;;-0.67;100.00
17054;BME280;8643;48.824;11.422;2024-03-08T04:55:14;96769.34;;;-0.65;100.00
17054;BME280;8643;48.824;11.422;2024-03-08T04:57:43;96771.53;;;-0.57;100.00
17054;BME280;8643;48.824;11.422;2024-03-08T05:00:14;96769.13;;;-0.53;100.00
17054;BME280;8643;48.824;11.422;2024-03-08T05:02:43;96771.81;;;-0.48;100.00
17054;BME280;8643;48.824;11.422;2024-03-08T05:05:13;96768.88;;;-0.41;100.00
17054;BME280;8643;48.824;11.422;2024-03-08T05:07:42;96772.91;;;-0.44;100.00
17054;BME280;8643;48.824;11.422;2024-03-08T05:10:13;96769.41;;;-0.44;100.00
17054;BME280;8643;48.824;11.422;2024-03-08T05:12:44;96767.00;;;-0.41;100.00
17054;BME280;8643;48.824;11.422;2024-03-08T05:15:13;96763.50;;;-0.46;100.00
17054;BME280;8643;48.824;11.422;2024-03-08T05:17:41;96754.59;;;-0.52;100.00
17054;BME280;8643;48.824;11.422;2024-03-08T05:20:10;96758.34;;;-0.63;100.00
17054;BME280;8643;48.824;11.422;2024-03-08T05:22:41;96760.44;;;-0.76;100.00
17054;BME280;8643;48.824;11.422;2024-03-08T05:25:10;96755.56;;;-0.84;100.00
17054;BME280;8643;48.824;11.422;2024-03-08T05:27:39;96755.28;;;-0.87;100.00
17054;BME280;8643;48.824;11.422;2024-03-08T05:30:09;96750.41;;;-1.01;100.00
17054;BME280;8643;48.824;11.422;2024-03-08T05:32:42;96749.28;;;-1.05;100.00
17054;BME280;8643;48.824;11.422;2024-03-08T05:35:12;96746.06;;;-1.02;100.00
17054;BME280;8643;48.824;11.422;2024-03-08T05:37:45;96753.00;;;-1.11;100.00
17054;BME280;8643;48.824;11.422;2024-03-08T05:40:13;96755.41;;;-1.15;100.00
17054;BME280;8643;48.824;11.422;2024-03-08T05:42:45;96755.16;;;-1.13;100.00
17054;BME280;8643;48.824;11.422;2024-03-08T05:45:14;96750.81;;;-1.24;100.00
17054;BME280;8643;48.824;11.422;2024-03-08T05:47:43;96747.34;;;-1.20;100.00
17054;BME280;8643;48.824;11.422;2024-03-08T05:50:12;96742.47;;;-1.28;100.00
17054;BME280;8643;48.824;11.422;2024-03-08T05:52:43;96744.34;;;-1.28;100.00
17054;BME280;8643;48.824;11.422;2024-03-08T05:55:12;96739.78;;;-1.28;100.00
17054;BME280;8643;48.824;11.422;2024-03-08T05:57:41;96740.34;;;-1.21;100.00
17054;BME280;8643;48.824;11.422;2024-03-08T06:00:11;96741.69;;;-1.23;100.00
17054;BME280;8643;48.824;11.422;2024-03-08T06:02:40;96740.34;;;-1.21;100.00
17054;BME280;8643;48.824;11.422;2024-03-08T06:05:09;96730.97;;;-1.18;100.00
17054;BME280;8643;48.824;11.422;2024-03-08T06:07:38;96737.13;;;-1.18;100.00
17054;BME280;8643;48.824;11.422;2024-03-08T06:10:10;96727.50;;;-1.08;100.00
17054;BME280;8643;48.824;11.422;2024-03-08T06:12:40;96730.72;;;-1.06;100.00
17054;BME280;8643;48.824;11.422;2024-03-08T06:15:10;96725.63;;;-1.03;100.00
17054;BME280;8643;48.824;11.422;2024-03-08T06:17:42;96732.16;;;-0.88;100.00
17054;BME280;8643;48.824;11.422;2024-03-08T06:20:11;96723.03;;;-0.87;100.00
17054;BME280;8643;48.824;11.422;2024-03-08T06:22:41;96728.94;;;-0.80;100.00
17054;BME280;8643;48.824;11.422;2024-03-08T06:25:11;96732.47;;;-0.75;100.00
17054;BME280;8643;48.824;11.422;2024-03-08T06:27:41;96727.13;;;-0.69;100.00
17054;BME280;8643;48.824;11.422;2024-03-08T06:30:11;96733.06;;;-0.57;100.00
17054;BME280;8643;48.824;11.422;2024-03-08T06:32:40;96733.34;;;-0.53;100.00
17054;BME280;8643;48.824;11.422;2024-03-08T06:35:10;96728.78;;;-0.43;100.00
17054;BME280;8643;48.824;11.422;2024-03-08T06:37:39;96721.28;;;-0.30;100.00
17054;BME280;8643;48.824;11.422;2024-03-08T06:40:12;96720.75;;;-0.22;100.00
17054;BME280;8643;48.824;11.422;2024-03-08T06:42:42;96729.94;;;-0.13;100.00
17054;BME280;8643;48.824;11.422;2024-03-08T06:45:12;96726.44;;;0.02;100.00
17054;BME280;8643;48.824;11.422;2024-03-08T06:47:42;96726.41;;;0.17;100.00
17054;BME280;8643;48.824;11.422;2024-03-08T06:50:12;96718.06;;;0.29;100.00
17054;BME280;8643;48.824;11.422;2024-03-08T06:52:42;96713.75;;;0.33;100.00
17054;BME280;8643;48.824;11.422;2024-03-08T06:55:13;96718.31;;;0.43;100.00
17054;BME280;8643;48.824;11.422;2024-03-08T06:57:41;96714.53;;;0.39;100.00
17054;BME280;8643;48.824;11.422;2024-03-08T07:00:11;96722.63;;;0.49;100.00
17054;BME280;8643;48.824;11.422;2024-03-08T07:02:45;96721.25;;;0.52;100.00
17054;BME280;8643;48.824;11.422;2024-03-08T07:05:16;96721.00;;;0.48;100.00
17054;BME280;8643;48.824;11.422;2024-03-08T07:07:45;96714.28;;;0.51;100.00
17054;BME280;8643;48.824;11.422;2024-03-08T07:10:17;96713.47;;;0.56;100.00
17054;BME280;8643;48.824;11.422;2024-03-08T07:12:46;96720.72;;;0.65;100.00
17054;BME280;8643;48.824;11.422;2024-03-08T07:15:15;96719.34;;;0.68;100.00
17054;BME280;8643;48.824;11.422;2024-03-08T07:17:47;96720.97;;;0.69;100.00
17054;BME280;8643;48.824;11.422;2024-03-08T07:20:16;96716.06;;;0.81;100.00
17054;BME280;8643;48.824;11.422;2024-03-08T07:22:46;96718.75;;;0.86;100.00
17054;BME280;8643;48.824;11.422;2024-03-08T07:25:18;96720.31;;;0.98;100.00
17054;BME280;8643;48.824;11.422;2024-03-08T07:27:52;96726.56;;;0.98;100.00
17054;BME280;8643;48.824;11.422;2024-03-08T07:30:22;96720.59;;;0.96;100.00
17054;BME280;8643;48.824;11.422;2024-03-08T07:33:10;96715.75;;;0.98;100.00
17054;BME280;8643;48.824;11.422;2024-03-08T07:35:41;96726.50;;;1.08;100.00
17054;BME280;8643;48.824;11.422;2024-03-08T07:38:11;96714.13;;;1.02;100.00
17054;BME280;8643;48.824;11.422;2024-03-08T07:40:42;96725.19;;;1.01;100.00
17054;BME280;8643;48.824;11.422;2024-03-08T07:43:12;96715.94;;;1.17;100.00
17054;BME280;8643;48.824;11.422;2024-03-08T07:45:41;96717.56;;;1.18;100.00
17054;BME280;8643;48.824;11.422;2024-03-08T07:48:10;96711.34;;;1.23;100.00
17054;BME280;8643;48.824;11.422;2024-03-08T07:50:40;96711.06;;;1.24;100.00
17054;BME280;8643;48.824;11.422;2024-03-08T07:53:09;96709.69;;;1.27;100.00
17054;BME280;8643;48.824;11.422;2024-03-08T07:55:38;96716.44;;;1.30;100.00
17054;BME280;8643;48.824;11.422;2024-03-08T07:58:11;96708.25;;;1.45;100.00
17054;BME280;8643;48.824;11.422;2024-03-08T08:00:41;96712.03;;;1.44;100.00
17054;BME280;8643;48.824;11.422;2024-03-08T08:03:10;96709.09;;;1.40;100.00
17054;BME280;8643;48.824;11.422;2024-03-08T08:05:40;96707.09;;;1.56;100.00
17054;BME280;8643;48.824;11.422;2024-03-08T08:08:08;96691.06;;;1.75;100.00
17054;BME280;8643;48.824;11.422;2024-03-08T08:10:38;96706.34;;;1.90;100.00
17054;BME280;8643;48.824;11.422;2024-03-08T08:13:07;96703.03;;;1.98;100.00
17054;BME280;8643;48.824;11.422;2024-03-08T08:15:37;96693.41;;;2.22;100.00
17054;BME280;8643;48.824;11.422;2024-03-08T08:18:06;96691.38;;;2.37;100.00
17054;BME280;8643;48.824;11.422;2024-03-08T08:20:37;96682.72;;;2.65;100.00
17054;BME280;8643;48.824;11.422;2024-03-08T08:23:05;96684.50;;;3.23;100.00
17054;BME280;8643;48.824;11.422;2024-03-08T08:25:34;96683.16;;;3.20;100.00
17054;BME280;8643;48.824;11.422;2024-03-08T08:28:03;96672.63;;;3.57;100.00
17054;BME280;8643;48.824;11.422;2024-03-08T08:30:32;96671.41;;;3.68;100.00
17054;BME280;8643;48.824;11.422;2024-03-08T08:33:02;96664.31;;;3.72;100.00
17054;BME280;8643;48.824;11.422;2024-03-08T08:35:33;96668.75;;;3.82;100.00
17054;BME280;8643;48.824;11.422;2024-03-08T08:38:01;96670.69;;;3.81;100.00
17054;BME280;8643;48.824;11.422;2024-03-08T08:40:31;96675.16;;;4.05;100.00
17054;BME280;8643;48.824;11.422;2024-03-08T08:43:00;96667.75;;;4.44;100.00
17054;BME280;8643;48.824;11.422;2024-03-08T08:45:31;96664.38;;;5.07;100.00
17054;BME280;8643;48.824;11.422;2024-03-08T08:48:02;96660.47;;;4.25;100.00
17054;BME280;8643;48.824;11.422;2024-03-08T08:50:33;96661.09;;;4.36;100.00
17054;BME280;8643;48.824;11.422;2024-03-08T08:53:02;96664.03;;;5.23;100.00
17054;BME280;8643;48.824;11.422;2024-03-08T08:55:32;96647.69;;;5.14;100.00
17054;BME280;8643;48.824;11.422;2024-03-08T08:58:03;96651.59;;;4.80;100.00
17054;BME280;8643;48.824;11.422;2024-03-08T09:00:32;96647.97;;;4.99;100.00
17054;BME280;8643;48.824;11.422;2024-03-08T09:03:03;96645.88;;;5.09;100.00
17054;BME280;8643;48.824;11.422;2024-03-08T09:05:33;96640.47;;;4.95;100.00
17054;BME280;8643;48.824;11.422;2024-03-08T09:08:06;96649.06;;;4.56;100.00
17054;BME280;8643;48.824;11.422;2024-03-08T09:10:36;96636.94;;;5.45;100.00
17054;BME280;8643;48.824;11.422;2024-03-08T09:13:06;96627.75;;;6.14;100.00
17054;BME280;8643;48.824;11.422;2024-03-08T09:15:44;96623.84;;;5.84;100.00
17054;BME280;8643;48.824;11.422;2024-03-08T09:18:14;96627.22;;;6.03;100.00
17054;BME280;8643;48.824;11.422;2024-03-08T09:20:42;96623.75;;;6.43;100.00
17054;BME280;8643;48.824;11.422;2024-03-08T09:23:11;96629.44;;;5.65;100.00
17054;BME280;8643;48.824;11.422;2024-03-08T09:25:40;96629.78;;;4.85;100.00
17054;BME280;8643;48.824;11.422;2024-03-08T09:28:11;96627.28;;;4.47;100.00
17054;BME280;8643;48.824;11.422;2024-03-08T09:30:40;96623.50;;;4.76;100.00
17054;BME280;8643;48.824;11.422;2024-03-08T09:33:15;96624.88;;;5.15;100.00
17054;BME280;8643;48.824;11.422;2024-03-08T09:35:47;96617.16;;;5.45;100.00
17054;BME280;8643;48.824;11.422;2024-03-08T09:38:15;96626.06;;;5.09;100.00
17054;BME280;8643;48.824;11.422;2024-03-08T09:40:44;96616.44;;;6.21;100.00
17054;BME280;8643;48.824;11.422;2024-03-08T09:43:13;96616.22;;;6.09;100.00
17054;BME280;8643;48.824;11.422;2024-03-08T09:45:43;96602.09;;;6.29;100.00
17054;BME280;8643;48.824;11.422;2024-03-08T09:48:16;96604.47;;;7.98;98.03
17054;BME280;8643;48.824;11.422;2024-03-08T09:50:46;96596.66;;;7.27;91.62
17054;BME280;8643;48.824;11.422;2024-03-08T09:53:16;96597.38;;;6.92;95.69
17054;BME280;8643;48.824;11.422;2024-03-08T09:55:45;96590.88;;;7.72;92.81
17054;BME280;8643;48.824;11.422;2024-03-08T09:58:14;96592.97;;;7.93;97.21
17054;BME280;8643;48.824;11.422;2024-03-08T10:01:04;96587.75;;;8.35;91.97
17054;BME280;8643;48.824;11.422;2024-03-08T10:03:35;96584.16;;;9.41;92.16
17054;BME280;8643;48.824;11.422;2024-03-08T10:06:04;96587.31;;;9.31;86.87
17054;BME280;8643;48.824;11.422;2024-03-08T10:08:33;96587.00;;;9.24;88.64
17054;BME280;8643;48.824;11.422;2024-03-08T10:11:02;96587.53;;;9.17;83.81
17054;BME280;8643;48.824;11.422;2024-03-08T10:13:32;96578.47;;;9.25;84.76
17054;BME280;8643;48.824;11.422;2024-03-08T10:16:01;96575.28;;;9.23;87.49
17054;BME280;8643;48.824;11.422;2024-03-08T10:18:29;96574.97;;;9.46;84.80
17054;BME280;8643;48.824;11.422;2024-03-08T10:21:08;96577.50;;;10.05;85.20
17054;BME280;8643;48.824;11.422;2024-03-08T10:23:38;96568.44;;;10.14;83.82
17054;BME280;8643;48.824;11.422;2024-03-08T10:26:11;96571.38;;;10.67;81.29
17054;BME280;8643;48.824;11.422;2024-03-08T10:28:42;96569.91;;;10.57;83.01
17054;BME280;8643;48.824;11.422;2024-03-08T10:31:12;96559.69;;;10.33;80.06
17054;BME280;8643;48.824;11.422;2024-03-08T10:33:45;96566.00;;;10.95;77.87
17054;BME280;8643;48.824;11.422;2024-03-08T10:36:15;96555.16;;;10.37;73.72
17054;BME280;8643;48.824;11.422;2024-03-08T10:38:46;96560.91;;;10.23;75.37
17054;BME280;8643;48.824;11.422;2024-03-08T10:41:16;96556.22;;;10.69;80.99
17054;BME280;8643;48.824;11.422;2024-03-08T10:44:15;96552.13;;;11.00;75.46
17054;BME280;8643;48.824;11.422;2024-03-08T10:47:00;96546.63;;;11.00;77.34
17054;BME280;8643;48.824;11.422;2024-03-08T10:49:38;96544.81;;;11.57;73.51
17054;BME280;8643;48.824;11.422;2024-03-08T10:52:09;96546.56;;;11.37;74.53
17054;BME280;8643;48.824;11.422;2024-03-08T10:54:42;96541.63;;;11.43;72.12
17054;BME280;8643;48.824;11.422;2024-03-08T10:57:13;96541.03;;;10.84;70.13
17054;BME280;8643;48.824;11.422;2024-03-08T10:59:43;96534.03;;;11.11;76.04
17054;BME280;8643;48.824;11.422;2024-03-08T11:02:12;96531.97;;;11.21;72.22
17054;BME280;8643;48.824;11.422;2024-03-08T11:04:46;96529.84;;;11.54;75.74
17054;BME280;8643;48.824;11.422;2024-03-08T11:07:17;96526.56;;;11.77;73.28
17054;BME280;8643;48.824;11.422;2024-03-08T11:09:48;96512.84;;;11.77;75.47
17054;BME280;8643;48.824;11.422;2024-03-08T11:12:25;96515.41;;;11.98;69.86
17054;BME280;8643;48.824;11.422;2024-03-08T11:15:00;96514.50;;;11.94;66.48
17054;BME280;8643;48.824;11.422;2024-03-08T11:17:45;96512.69;;;12.14;68.60
17054;BME280;8643;48.824;11.422;2024-03-08T11:20:17;96508.84;;;12.03;67.83
17054;BME280;8643;48.824;11.422;2024-03-08T11:22:52;96501.19;;;12.40;69.13
17054;BME280;8643;48.824;11.422;2024-03-08T11:25:36;96496.63;;;12.00;68.13
17054;BME280;8643;48.824;11.422;2024-03-08T11:28:14;96493.81;;;12.44;69.85
17054;BME280;8643;48.824;11.422;2024-03-08T11:30:47;96494.78;;;11.76;69.57
17054;BME280;8643;48.824;11.422;2024-03-08T11:33:40;96487.53;;;12.28;67.62
17054;BME280;8643;48.824;11.422;2024-03-08T11:36:12;96482.22;;;12.51;67.08
17054;BME280;8643;48.824;11.422;2024-03-08T11:38:46;96477.88;;;13.01;67.35
17054;BME280;8643;48.824;11.422;2024-03-08T11:41:17;96467.16;;;12.45;63.26
17054;BME280;8643;48.824;11.422;2024-03-08T11:43:47;96468.91;;;12.69;63.63
17054;BME280;8643;48.824;11.422;2024-03-08T11:46:18;96464.66;;;12.72;67.29
17054;BME280;8643;48.824;11.422;2024-03-08T11:48:47;96462.31;;;12.90;65.43
17054;BME280;8643;48.824;11.422;2024-03-08T11:51:16;96461.44;;;13.41;65.27
17054;BME280;8643;48.824;11.422;2024-03-08T11:53:49;96462.63;;;14.02;63.74
17054;BME280;8643;48.824;11.422;2024-03-08T11:56:18;96461.59;;;13.67;60.40
17054;BME280;8643;48.824;11.422;2024-03-08T11:58:54;96457.97;;;13.63;58.88
17054;BME280;8643;48.824;11.422;2024-03-08T12:01:25;96448.84;;;13.59;61.58
17054;BME280;8643;48.824;11.422;2024-03-08T12:03:56;96453.97;;;13.41;60.57
17054;BME280;8643;48.824;11.422;2024-03-08T12:06:27;96446.38;;;13.54;60.33
17054;BME280;8643;48.824;11.422;2024-03-08T12:09:09;96448.59;;;13.09;58.11
17054;BME280;8643;48.824;11.422;2024-03-08T12:11:38;96441.81;;;13.62;60.81
17054;BME280;8643;48.824;11.422;2024-03-08T12:14:07;96436.56;;;12.62;58.49
17054;BME280;8643;48.824;11.422;2024-03-08T12:16:36;96435.38;;;13.34;60.29
17054;BME280;8643;48.824;11.422;2024-03-08T12:19:05;96429.72;;;13.27;59.43
17054;BME280;8643;48.824;11.422;2024-03-08T12:21:36;96428.00;;;13.19;62.07
17054;BME280;8643;48.824;11.422;2024-03-08T12:24:08;96437.09;;;13.62;56.16
17054;BME280;8643;48.824;11.422;2024-03-08T12:26:39;96429.78;;;13.70;58.81
17054;BME280;8643;48.824;11.422;2024-03-08T12:29:16;96415.22;;;13.89;57.70
17054;BME280;8643;48.824;11.422;2024-03-08T12:31:48;96426.47;;;14.03;55.60
17054;BME280;8643;48.824;11.422;2024-03-08T12:34:17;96418.66;;;13.63;55.92
17054;BME280;8643;48.824;11.422;2024-03-08T12:36:47;96420.94;;;13.80;58.58
17054;BME280;8643;48.824;11.422;2024-03-08T12:39:20;96415.94;;;14.09;54.34
17054;BME280;8643;48.824;11.422;2024-03-08T12:41:54;96412.34;;;14.05;58.66
17054;BME280;8643;48.824;11.422;2024-03-08T12:44:24;96410.84;;;14.34;57.10
17054;BME280;8643;48.824;11.422;2024-03-08T12:46:55;96412.69;;;14.26;53.21
17054;BME280;8643;48.824;11.422;2024-03-08T12:49:27;96401.56;;;14.69;53.31
17054;BME280;8643;48.824;11.422;2024-03-08T12:51:55;96407.69;;;14.59;54.91
17054;BME280;8643;48.824;11.422;2024-03-08T12:54:25;96394.22;;;14.04;54.60
17054;BME280;8643;48.824;11.422;2024-03-08T12:56:53;96389.25;;;13.90;55.04
17054;BME280;8643;48.824;11.422;2024-03-08T12:59:22;96385.22;;;13.41;55.97
17054;BME280;8643;48.824;11.422;2024-03-08T13:01:52;96381.91;;;13.12;52.75
17054;BME280;8643;48.824;11.422;2024-03-08T13:04:21;96378.06;;;13.56;58.73
17054;BME280;8643;48.824;11.422;2024-03-08T13:06:50;96373.50;;;13.87;54.92
17054;BME280;8643;48.824;11.422;2024-03-08T13:09:21;96379.81;;;13.45;56.84
17054;BME280;8643;48.824;11.422;2024-03-08T13:11:52;96366.75;;;13.61;59.66